createdAt,value
2023-04-18T00:02:39.858Z,102751.47
2023-04-18T00:05:47.954Z,102750.56
2023-04-18T00:08:52.537Z,102749.72
2023-04-18T00:11:56.815Z,102744.50
2023-04-18T00:15:03.012Z,102747.09
2023-04-18T00:18:08.340Z,102743.59
2023-04-18T00:21:13.856Z,102747.06
2023-04-18T00:24:18.124Z,102750.56
2023-04-18T00:27:22.360Z,102743.56
2023-04-18T00:30:27.108Z,102753.16
2023-04-18T00:33:31.524Z,102749.69
2023-04-18T00:36:35.955Z,102753.16
2023-04-18T00:39:39.996Z,102757.53
2023-04-18T00:42:44.408Z,102753.16
2023-04-18T00:45:48.767Z,102750.56
2023-04-18T00:48:53.421Z,102759.28
2023-04-18T00:51:57.667Z,102754.94
2023-04-18T00:55:05.928Z,102752.31
2023-04-18T00:58:10.613Z,102760.16
2023-04-18T01:01:15.195Z,102758.41
2023-04-18T01:04:19.644Z,102751.47
2023-04-18T01:07:25.500Z,102757.56
2023-04-18T01:10:31.110Z,102759.34
2023-04-18T01:13:35.536Z,102761.09
2023-04-18T01:16:40.017Z,102755.88
2023-04-18T01:19:44.494Z,102753.28
2023-04-18T01:22:48.519Z,102758.53
2023-04-18T01:25:52.753Z,102757.69
2023-04-18T01:28:57.025Z,102764.66
2023-04-18T01:32:02.475Z,102764.63
2023-04-18T01:35:07.463Z,102764.63
2023-04-18T01:38:11.869Z,102766.34
2023-04-18T01:41:16.246Z,102761.97
2023-04-18T01:44:20.418Z,102768.06
2023-04-18T01:47:24.573Z,102766.31
2023-04-18T01:50:29.330Z,102757.63
2023-04-18T01:53:33.546Z,102770.66
2023-04-18T01:56:37.802Z,102762.81
2023-04-18T01:59:42.076Z,102771.50
2023-04-18T02:02:46.447Z,102766.25
2023-04-18T02:05:51.699Z,102772.34
2023-04-18T02:08:56.113Z,102769.69
2023-04-18T02:12:02.705Z,102772.28
2023-04-18T02:15:07.846Z,102764.44
2023-04-18T02:18:12.612Z,102762.72
2023-04-18T02:21:16.739Z,102765.31
2023-04-18T02:24:20.882Z,102765.31
2023-04-18T02:27:25.341Z,102767.00
2023-04-18T02:44:52.564Z,102778.22
2023-04-18T02:47:57.084Z,102776.53
2023-04-18T02:51:07.765Z,102776.50
2023-04-18T02:54:12.626Z,102773.91
2023-04-18T02:57:17.478Z,102783.41
2023-04-18T03:00:21.776Z,102780.84
2023-04-18T03:03:26.144Z,102789.50
2023-04-18T03:06:31.720Z,102786.88
2023-04-18T03:09:35.971Z,102785.13
2023-04-18T03:12:40.518Z,102791.25
2023-04-18T03:15:44.931Z,102789.50
2023-04-18T03:18:49.102Z,102799.03
2023-04-18T03:21:53.448Z,102802.47
2023-04-18T03:24:57.798Z,102804.19
2023-04-18T03:28:02.129Z,102812.84
2023-04-18T03:31:07.066Z,102808.53
2023-04-18T03:34:11.617Z,102801.56
2023-04-18T03:37:16.035Z,102805.88
2023-04-18T03:40:20.648Z,102810.22
2023-04-18T03:43:24.864Z,102817.16
2023-04-18T03:46:29.735Z,102818.88
2023-04-18T03:49:34.153Z,102825.84
2023-04-18T03:52:38.395Z,102819.72
2023-04-18T03:55:43.481Z,102825.78
2023-04-18T03:58:48.126Z,102827.47
2023-04-18T04:01:52.565Z,102830.06
2023-04-18T04:04:57.846Z,102822.28
2023-04-18T04:08:02.290Z,102820.44
2023-04-18T04:11:06.429Z,102835.28
2023-04-18T04:14:11.056Z,102825.63
2023-04-18T04:17:15.974Z,102838.63
2023-04-18T04:20:24.173Z,102835.94
2023-04-18T04:23:28.860Z,102830.75
2023-04-18T04:26:35.650Z,102834.25
2023-04-18T04:29:41.209Z,102836.81
2023-04-18T04:32:45.889Z,102834.22
2023-04-18T04:35:50.784Z,102840.22
2023-04-18T04:38:55.263Z,102843.66
2023-04-18T04:42:04.391Z,102852.41
2023-04-18T04:45:10.420Z,102859.34
2023-04-18T04:48:14.793Z,102848.13
2023-04-18T04:51:19.024Z,102849.06
2023-04-18T04:54:23.397Z,102848.25
2023-04-18T04:57:27.854Z,102848.31
2023-04-18T05:00:32.073Z,102845.75
2023-04-18T05:03:36.803Z,102843.22
2023-04-18T05:06:41.379Z,102843.31
2023-04-18T05:09:45.581Z,102841.63
2023-04-18T05:12:49.830Z,102842.53
2023-04-18T05:15:54.100Z,102846.03
2023-04-18T05:18:58.555Z,102840.88
2023-04-18T05:22:03.134Z,102839.19
2023-04-18T05:25:08.317Z,102840.94
2023-04-18T05:28:12.447Z,102838.34
2023-04-18T05:31:16.904Z,102834.06
2023-04-18T05:34:21.613Z,102838.47
2023-04-18T05:37:26.129Z,102816.75
2023-04-18T05:40:30.968Z,102823.75
2023-04-18T05:43:35.648Z,102824.63
2023-04-18T05:46:40.142Z,102815.09
2023-04-18T05:49:44.885Z,102817.69
2023-04-18T05:52:49.293Z,102812.50
2023-04-18T05:55:55.102Z,102820.28
2023-04-18T05:58:59.304Z,102820.31
2023-04-18T06:02:03.721Z,102815.94
2023-04-18T06:05:09.362Z,102816.78
2023-04-18T06:08:14.242Z,102810.72
2023-04-18T06:11:21.182Z,102824.63
2023-04-18T06:14:26.116Z,102823.72
2023-04-18T06:17:30.965Z,102818.47
2023-04-18T06:20:35.343Z,102820.19
2023-04-18T06:23:39.546Z,102825.41
2023-04-18T06:26:44.244Z,102809.72
2023-04-18T06:29:49.056Z,102814.94
2023-04-18T06:32:53.735Z,102804.47
2023-04-18T06:35:58.539Z,102811.38
2023-04-18T06:39:02.714Z,102800.91
2023-04-18T06:42:06.936Z,102795.63
2023-04-18T06:45:12.143Z,102807.81
2023-04-18T06:48:16.852Z,102811.31
2023-04-18T06:51:21.044Z,102815.63
2023-04-18T06:54:25.232Z,102814.72
2023-04-18T06:57:29.821Z,102811.13
2023-04-18T07:00:34.351Z,102811.91
2023-04-18T07:03:38.994Z,102820.59
2023-04-18T07:06:43.694Z,102820.47
2023-04-18T07:09:49.120Z,102804.72
2023-04-18T07:12:53.385Z,102809.00
2023-04-18T07:15:57.709Z,102809.72
2023-04-18T07:19:02.638Z,102812.28
2023-04-18T07:22:07.050Z,102800.81
2023-04-18T07:25:11.523Z,102804.25
2023-04-18T07:28:16.589Z,102807.63
2023-04-18T07:31:20.733Z,102811.97
2023-04-18T07:34:29.586Z,102821.53
2023-04-18T07:37:33.905Z,102813.66
2023-04-18T07:40:38.717Z,102817.25
2023-04-18T07:43:44.818Z,102820.69
2023-04-18T07:46:49.689Z,102829.38
2023-04-18T07:49:54.668Z,102838.13
2023-04-18T07:52:59.011Z,102831.06
2023-04-18T07:56:03.396Z,102827.44
2023-04-18T07:59:07.909Z,102815.03
2023-04-18T08:02:12.589Z,102827.28
2023-04-18T08:05:19.819Z,102827.19
2023-04-18T08:08:24.160Z,102820.19
2023-04-18T08:11:28.254Z,102830.66
2023-04-18T08:14:32.671Z,102830.50
2023-04-18T08:17:38.870Z,102835.78
2023-04-18T08:20:43.772Z,102837.59
2023-04-18T08:23:48.190Z,102828.72
2023-04-18T08:26:52.613Z,102836.47
2023-04-18T08:29:58.095Z,102839.00
2023-04-18T08:33:03.157Z,102843.28
2023-04-18T08:36:07.964Z,102846.63
2023-04-18T08:39:12.742Z,102849.06
2023-04-18T08:42:21.469Z,102849.00
2023-04-18T08:45:26.321Z,102837.63
2023-04-18T08:48:31.002Z,102838.56
2023-04-18T08:51:39.590Z,102837.72
2023-04-18T08:54:46.647Z,102832.31
2023-04-18T08:57:54.172Z,102837.44
2023-04-18T09:00:58.900Z,102834.72
2023-04-18T09:04:03.211Z,102836.41
2023-04-18T09:07:12.157Z,102841.47
2023-04-18T09:10:27.535Z,102841.31
2023-04-18T09:13:47.425Z,102847.47
2023-04-18T09:16:51.885Z,102849.69
2023-04-18T09:19:56.707Z,102852.94
2023-04-18T09:23:03.889Z,102848.50
2023-04-18T09:26:08.152Z,102842.31
2023-04-18T09:29:13.511Z,102843.97
2023-04-18T09:32:25.139Z,102840.28
2023-04-18T09:35:30.004Z,102839.31
2023-04-18T09:38:41.409Z,102834.91
2023-04-18T09:42:00.725Z,102826.00
2023-04-18T09:45:08.278Z,102821.41
2023-04-18T09:48:12.581Z,102818.56
2023-04-18T09:51:18.044Z,102820.31
2023-04-18T09:54:25.066Z,102831.38
2023-04-18T09:57:31.363Z,102823.22
2023-04-18T10:00:38.247Z,102814.91
2023-04-18T10:03:48.486Z,102815.44
2023-04-18T10:06:54.248Z,102805.66
2023-04-18T10:09:58.455Z,102810.63
2023-04-18T10:13:05.373Z,102812.22
2023-04-18T10:16:11.050Z,102801.63
2023-04-18T10:19:29.551Z,102805.72
2023-04-18T10:22:35.475Z,102804.53
2023-04-18T10:25:39.948Z,102806.97
2023-04-18T10:28:56.504Z,102809.13
2023-04-18T10:32:07.016Z,102796.72
2023-04-18T10:35:13.569Z,102799.09
2023-04-18T10:38:18.214Z,102791.38
2023-04-18T10:41:27.602Z,102798.00
2023-04-18T10:44:32.156Z,102791.13
2023-04-18T10:47:36.684Z,102782.50
2023-04-18T10:51:34.750Z,102789.13
2023-04-18T10:54:51.970Z,102779.44
2023-04-18T10:57:58.544Z,102782.94
2023-04-18T11:01:04.654Z,102779.59
2023-04-18T11:04:14.003Z,102785.03
2023-04-18T11:07:19.385Z,102793.25
2023-04-18T11:10:27.103Z,102784.59
2023-04-18T11:13:31.908Z,102772.69
2023-04-18T11:16:36.403Z,102778.13
2023-04-18T11:19:41.174Z,102779.38
2023-04-18T11:22:47.715Z,102779.50
2023-04-18T11:25:56.381Z,102776.47
2023-04-18T11:29:00.792Z,102782.59
2023-04-18T11:32:09.480Z,102772.94
2023-04-18T11:35:16.076Z,102771.75
2023-04-18T11:38:21.699Z,102775.34
2023-04-18T11:41:29.707Z,102777.31
2023-04-18T11:44:36.335Z,102768.81
2023-04-18T11:47:43.220Z,102769.13
2023-04-18T11:50:47.836Z,102767.50
2023-04-18T11:53:51.996Z,102773.06
2023-04-18T11:56:57.549Z,102775.88
2023-04-18T12:00:02.153Z,102777.78
2023-04-18T12:03:15.668Z,102791.06
2023-04-18T12:06:20.372Z,102776.50
2023-04-18T12:09:25.228Z,102779.88
2023-04-18T12:12:29.835Z,102771.56
2023-04-18T12:15:43.490Z,102784.44
2023-04-18T12:18:48.224Z,102775.00
2023-04-18T12:22:01.990Z,102779.13
2023-04-18T12:25:24.330Z,102774.00
2023-04-18T12:28:31.211Z,102771.03
2023-04-18T12:31:35.771Z,102768.06
2023-04-18T12:34:40.320Z,102767.81
2023-04-18T12:37:48.272Z,102757.25
2023-04-18T12:40:52.725Z,102763.50
2023-04-18T12:43:56.929Z,102760.84
2023-04-18T12:47:01.228Z,102764.75
2023-04-18T12:50:10.721Z,102755.59
2023-04-18T12:53:15.871Z,102764.69
2023-04-18T12:56:21.052Z,102752.72
2023-04-18T12:59:25.448Z,102750.00
2023-04-18T13:02:30.094Z,102746.66
2023-04-18T13:05:35.714Z,102742.38
2023-04-18T13:08:40.179Z,102749.28
2023-04-18T13:11:44.202Z,102748.03
2023-04-18T13:14:48.591Z,102748.03
2023-04-18T13:17:52.918Z,102758.50
2023-04-18T13:20:57.215Z,102756.88
2023-04-18T13:24:02.971Z,102750.88
2023-04-18T13:27:10.539Z,102749.34
2023-04-18T13:30:15.496Z,102755.50
2023-04-18T13:33:20.247Z,102763.72
2023-04-18T13:36:24.546Z,102747.22
2023-04-18T13:39:32.202Z,102749.31
2023-04-18T13:42:38.608Z,102748.25
2023-04-18T13:45:43.342Z,102746.88
2023-04-18T13:48:47.783Z,102735.91
2023-04-18T13:51:57.776Z,102735.78
2023-04-18T13:55:03.706Z,102743.78
2023-04-18T13:58:09.791Z,102747.78
2023-04-18T14:01:16.288Z,102736.34
2023-04-18T14:04:23.058Z,102743.59
2023-04-18T14:07:27.716Z,102730.38
2023-04-18T14:10:32.037Z,102739.34
2023-04-18T14:13:36.286Z,102735.59
2023-04-18T14:16:40.909Z,102732.81
2023-04-18T14:19:45.211Z,102721.25
2023-04-18T14:22:52.376Z,102722.00
2023-04-18T14:25:57.701Z,102715.75
2023-04-18T14:29:03.957Z,102720.56
2023-04-18T14:32:08.499Z,102701.88
2023-04-18T14:35:12.969Z,102699.00
2023-04-18T14:38:17.554Z,102715.94
2023-04-18T14:41:22.616Z,102718.81
2023-04-18T14:44:26.801Z,102712.94
2023-04-18T14:47:34.206Z,102709.78
2023-04-18T14:50:38.723Z,102717.84
2023-04-18T14:53:44.178Z,102715.06
2023-04-18T14:56:48.314Z,102700.47
2023-04-18T14:59:54.415Z,102698.75
2023-04-18T15:02:59.180Z,102713.22
2023-04-18T15:06:04.284Z,102709.72
2023-04-18T15:09:08.704Z,102713.06
2023-04-18T15:12:13.012Z,102699.19
2023-04-18T15:15:18.888Z,102704.03
2023-04-18T15:18:23.777Z,102701.13
2023-04-18T15:21:28.428Z,102713.13
2023-04-18T15:24:33.085Z,102725.41
2023-04-18T15:27:36.993Z,102710.81
2023-04-18T15:30:41.493Z,102717.69
2023-04-18T15:33:46.820Z,102718.84
2023-04-18T15:36:51.431Z,102719.81
2023-04-18T15:39:57.032Z,102721.47
2023-04-18T15:43:02.643Z,102709.44
2023-04-18T15:46:07.171Z,102718.84
2023-04-18T15:49:12.237Z,102711.13
2023-04-18T15:52:42.656Z,102710.66
2023-04-18T15:55:53.957Z,102713.88
2023-04-18T15:59:02.920Z,102720.56
2023-04-18T16:02:09.512Z,102725.19
2023-04-18T16:05:15.386Z,102722.25
2023-04-18T16:08:20.861Z,102726.25
2023-04-18T16:11:28.976Z,102732.22
2023-04-18T16:14:33.702Z,102728.94
2023-04-18T16:17:38.339Z,102711.38
2023-04-18T16:20:42.782Z,102713.84
2023-04-18T16:23:47.282Z,102722.00
2023-04-18T16:26:53.534Z,102709.50
2023-04-18T16:29:57.979Z,102723.91
2023-04-18T16:33:03.910Z,102729.94
2023-04-18T16:36:09.812Z,102722.28
2023-04-18T16:39:15.815Z,102721.22
2023-04-18T16:42:19.939Z,102724.47
2023-04-18T16:45:24.602Z,102730.31
2023-04-18T16:48:29.721Z,102735.50
2023-04-18T16:51:37.103Z,102725.53
2023-04-18T16:54:41.449Z,102736.22
2023-04-18T16:57:45.711Z,102738.66
2023-04-18T17:00:49.964Z,102734.66
2023-04-18T17:03:54.526Z,102731.91
2023-04-18T17:07:00.612Z,102742.09
2023-04-18T17:10:09.935Z,102738.66
2023-04-18T17:13:15.021Z,102745.63
2023-04-18T17:16:19.374Z,102750.53
2023-04-18T17:19:23.985Z,102757.09
2023-04-18T17:22:29.217Z,102755.97
2023-04-18T17:25:33.489Z,102757.81
2023-04-18T17:28:37.810Z,102753.84
2023-04-18T17:31:42.129Z,102748.75
2023-04-18T17:34:49.011Z,102749.41
2023-04-18T17:37:53.641Z,102756.81
2023-04-18T17:41:02.205Z,102750.31
2023-04-18T17:44:10.442Z,102759.38
2023-04-18T17:47:14.623Z,102757.34
2023-04-18T17:50:19.283Z,102751.06
2023-04-18T17:53:23.697Z,102767.91
2023-04-18T17:56:30.368Z,102778.94
2023-04-18T17:59:37.588Z,102779.44
2023-04-18T18:02:44.548Z,102784.28
2023-04-18T18:05:50.786Z,102784.84
2023-04-18T18:08:55.940Z,102795.00
2023-04-18T18:12:00.212Z,102803.19
2023-04-18T18:15:08.422Z,102805.41
2023-04-18T18:18:12.657Z,102808.22
2023-04-18T18:21:17.899Z,102822.34
2023-04-18T18:24:22.424Z,102811.16
2023-04-18T18:27:26.744Z,102814.84
2023-04-18T18:30:31.226Z,102822.94
2023-04-18T18:33:42.622Z,102824.03
2023-04-18T18:36:47.443Z,102843.31
2023-04-18T18:39:56.276Z,102838.19
2023-04-18T18:43:05.937Z,102843.53
2023-04-18T18:46:20.540Z,102845.41
2023-04-18T18:49:24.976Z,102852.44
2023-04-18T18:52:30.849Z,102849.06
2023-04-18T18:55:35.528Z,102850.91
2023-04-18T18:58:40.431Z,102857.13
2023-04-18T19:01:44.629Z,102865.22
2023-04-18T19:04:49.001Z,102867.94
2023-04-18T19:07:53.854Z,102870.59
2023-04-18T19:10:58.141Z,102869.78
2023-04-18T19:14:04.064Z,102869.84
2023-04-18T19:17:08.577Z,102885.72
2023-04-18T19:20:13.415Z,102879.63
2023-04-18T19:23:19.263Z,102885.88
2023-04-18T19:26:23.426Z,102888.56
2023-04-18T19:29:27.643Z,102883.41
2023-04-18T19:32:32.597Z,102888.75
2023-04-18T19:35:37.996Z,102883.69
2023-04-18T19:38:42.639Z,102882.00
2023-04-18T19:41:46.970Z,102890.88
2023-04-18T19:44:51.276Z,102897.94
2023-04-18T19:47:56.140Z,102885.75
2023-04-18T19:51:04.690Z,102893.56
2023-04-18T19:54:09.269Z,102897.16
2023-04-18T19:57:13.573Z,102900.72
2023-04-18T20:00:19.864Z,102908.63
2023-04-18T20:03:24.300Z,102912.09
2023-04-18T20:06:32.325Z,102919.09
2023-04-18T20:09:37.673Z,102909.56
2023-04-18T20:12:41.926Z,102909.59
2023-04-18T20:15:47.377Z,102911.38
2023-04-18T20:18:54.187Z,102906.19
2023-04-18T20:21:59.629Z,102907.94
2023-04-18T20:25:04.101Z,102911.44
2023-04-18T20:28:08.761Z,102908.84
2023-04-18T20:31:13.274Z,102904.50
2023-04-18T20:34:18.949Z,102907.13
2023-04-18T20:37:24.533Z,102902.84
2023-04-18T20:40:29.279Z,102903.72
2023-04-18T20:43:37.265Z,102902.84
2023-04-18T20:46:42.126Z,102908.97
2023-04-18T20:49:46.994Z,102910.72
2023-04-18T20:52:52.011Z,102904.63
2023-04-18T20:55:56.644Z,102910.78
2023-04-18T20:59:02.446Z,102910.78
2023-04-18T21:02:08.458Z,102911.66
2023-04-18T21:05:16.800Z,102907.31
2023-04-18T21:08:22.070Z,102910.81
2023-04-18T21:11:26.858Z,102924.75
2023-04-18T21:14:32.578Z,102930.81
2023-04-18T21:17:36.956Z,102930.84
2023-04-18T21:20:42.027Z,102931.69
2023-04-18T21:23:47.909Z,102935.19
2023-04-18T21:26:53.108Z,102929.09
2023-04-18T21:29:59.357Z,102920.38
2023-04-18T21:33:05.896Z,102916.06
2023-04-18T21:36:12.925Z,102923.00
2023-04-18T21:39:17.852Z,102929.13
2023-04-18T21:42:22.538Z,102929.97
2023-04-18T21:45:26.953Z,102923.00
2023-04-18T21:48:32.702Z,102923.00
2023-04-18T21:51:37.110Z,102928.22
2023-04-18T21:54:43.910Z,102921.25
2023-04-18T21:57:48.483Z,102919.53
2023-04-18T22:00:52.919Z,102925.59
2023-04-18T22:03:58.263Z,102917.75
2023-04-18T22:07:02.757Z,102922.09
2023-04-18T22:10:08.964Z,102919.47
2023-04-18T22:13:14.642Z,102928.16
2023-04-18T22:16:22.269Z,102918.63
2023-04-18T22:19:29.730Z,102913.38
2023-04-18T22:22:36.002Z,102918.59
2023-04-18T22:25:42.471Z,102922.06
2023-04-18T22:28:48.422Z,102917.72
2023-04-18T22:31:53.521Z,102913.34
2023-04-18T22:34:59.121Z,102915.97
2023-04-18T22:38:03.844Z,102904.66
2023-04-18T22:41:08.885Z,102916.84
2023-04-18T22:44:14.344Z,102912.47
2023-04-18T22:47:19.441Z,102912.47
2023-04-18T22:50:25.111Z,102908.16
2023-04-18T22:53:32.223Z,102910.75
2023-04-18T22:56:37.078Z,102912.47
2023-04-18T22:59:45.291Z,102923.75
2023-04-18T23:02:50.098Z,102919.44
2023-04-18T23:05:56.465Z,102922.06
2023-04-18T23:09:04.037Z,102922.94
2023-04-18T23:12:10.107Z,102921.19
2023-04-18T23:15:16.438Z,102923.81
2023-04-18T23:18:23.153Z,102924.69
2023-04-18T23:21:29.211Z,102921.19
2023-04-18T23:24:34.493Z,102918.56
2023-04-18T23:27:39.681Z,102919.44
2023-04-18T23:30:46.069Z,102921.19
2023-04-18T23:33:51.157Z,102922.91
2023-04-18T23:36:56.124Z,102920.28
2023-04-18T23:40:03.034Z,102918.53
2023-04-18T23:43:10.200Z,102915.00
2023-04-18T23:46:16.378Z,102918.50
2023-04-18T23:49:22.150Z,102918.47
2023-04-18T23:52:26.842Z,102919.34
2023-04-18T23:55:31.826Z,102908.91
2023-04-18T23:58:36.916Z,102910.63
